Time;durP1;ratioP1;P1;durP2;ratioP2;P2;SDS_P1;SDS_P2;PMS_P1;PMS_P2;Temp;Humidity;BMP_temperature;BMP_pressure;BME280_temperature;BME280_humidity;BME280_pressure;Samples;Min_cycle;Max_cycle;Signal;HPM_P1;HPM_P2
2022/03/28 00:01:19;;;;;;;13.38;8.90;;;10.40;99.90;;;;;;5032494;28;20254;-45
2022/03/28 00:03:45;;;;;;;14.13;9.60;;;10.30;99.90;;;;;;5032231;28;20167;-45
2022/03/28 00:06:11;;;;;;;15.63;9.27;;;10.30;99.90;;;;;;5032202;28;20179;-45
2022/03/28 00:08:37;;;;;;;15.05;9.40;;;10.30;99.90;;;;;;5032207;28;20209;-45
2022/03/28 00:11:06;;;;;;;14.55;8.70;;;10.40;99.90;;;;;;5032279;28;20246;-45
2022/03/28 00:13:33;;;;;;;15.55;9.35;;;10.30;99.90;;;;;;5032159;28;20210;-45
2022/03/28 00:15:59;;;;;;;11.60;8.50;;;10.30;99.90;;;;;;5032335;28;20204;-45
2022/03/28 00:18:24;;;;;;;16.05;9.23;;;10.30;99.90;;;;;;5032078;28;20195;-45
2022/03/28 00:20:53;;;;;;;17.83;9.63;;;10.30;99.90;;;;;;5032715;28;20175;-45
2022/03/28 00:23:19;;;;;;;14.70;8.40;;;10.30;99.90;;;;;;5032635;28;20175;-45
2022/03/28 00:25:45;;;;;;;12.93;9.02;;;10.30;99.90;;;;;;5032086;28;20643;-45
2022/03/28 00:28:11;;;;;;;14.30;9.35;;;10.30;99.90;;;;;;5032193;28;20210;-45
2022/03/28 00:30:37;;;;;;;12.88;8.75;;;10.30;99.90;;;;;;5032186;28;20250;-45
2022/03/28 00:33:03;;;;;;;12.50;8.50;;;10.30;99.90;;;;;;5032112;28;20591;-45
2022/03/28 00:35:29;;;;;;;18.02;8.73;;;10.30;99.90;;;;;;5031818;28;20569;-45
2022/03/28 00:37:55;;;;;;;11.93;8.07;;;10.20;99.90;;;;;;5032101;28;20176;-45
2022/03/28 00:40:21;;;;;;;11.63;7.63;;;10.20;99.90;;;;;;5033422;28;20202;-45
2022/03/28 00:42:50;;;;;;;13.13;9.15;;;10.20;99.90;;;;;;5035813;28;20633;-45
2022/03/28 00:45:16;;;;;;;12.75;8.50;;;10.10;99.90;;;;;;5035888;28;20171;-45
2022/03/28 00:47:43;;;;;;;15.48;8.82;;;10.10;99.90;;;;;;5035708;28;20571;-45
2022/03/28 00:50:09;;;;;;;15.93;9.32;;;10.10;99.90;;;;;;5036034;28;20194;-46
2022/03/28 00:52:36;;;;;;;15.95;8.82;;;10.10;99.90;;;;;;5035709;28;20167;-45
2022/03/28 00:55:04;;;;;;;15.85;8.60;;;10.10;99.90;;;;;;5035716;28;20219;-45
2022/03/28 00:57:30;;;;;;;14.30;8.93;;;10.10;99.90;;;;;;5034493;28;20218;-46
2022/03/28 00:59:55;;;;;;;14.25;9.30;;;10.10;99.90;;;;;;5035570;28;20179;-45
2022/03/28 01:02:21;;;;;;;14.30;9.75;;;10.00;99.90;;;;;;5035805;28;20189;-45
2022/03/28 01:04:47;;;;;;;14.00;9.40;;;10.00;99.90;;;;;;5035939;28;20179;-45
2022/03/28 01:07:13;;;;;;;15.85;9.25;;;9.90;99.90;;;;;;5035541;28;20167;-45
2022/03/28 01:09:39;;;;;;;13.95;8.60;;;10.00;99.90;;;;;;5035598;28;20263;-45
2022/03/28 01:12:06;;;;;;;14.63;8.35;;;9.90;99.90;;;;;;5035453;28;20203;-45
2022/03/28 01:14:32;;;;;;;12.52;8.05;;;9.90;99.90;;;;;;5035273;28;20200;-45
2022/03/28 01:19:42;;;;;;;10.00;7.53;;;9.90;99.90;;;;;;5035499;28;20174;-45
2022/03/28 01:22:07;;;;;;;10.70;7.53;;;9.80;99.90;;;;;;5035262;28;20175;-45
2022/03/28 01:24:34;;;;;;;12.15;6.68;;;9.70;99.90;;;;;;5035279;28;20167;-46
2022/03/28 01:27:01;;;;;;;14.05;7.85;;;9.60;99.90;;;;;;5035153;28;20171;-45
2022/03/28 01:29:27;;;;;;;10.25;7.10;;;9.50;99.90;;;;;;5035373;28;20178;-45
2022/03/28 01:31:52;;;;;;;16.85;7.68;;;9.50;99.90;;;;;;5035066;28;20167;-45
2022/03/28 01:34:19;;;;;;;12.00;7.38;;;9.60;99.90;;;;;;5035321;28;20294;-45
2022/03/28 01:36:47;;;;;;;11.57;7.65;;;9.60;99.90;;;;;;5034962;28;20171;-45
2022/03/28 01:39:13;;;;;;;11.02;7.38;;;9.50;99.90;;;;;;5033764;28;20539;-45
2022/03/28 01:41:39;;;;;;;12.98;7.18;;;9.50;99.90;;;;;;5034894;28;20179;-45
2022/03/28 01:44:05;;;;;;;12.10;6.60;;;9.50;99.90;;;;;;5034779;28;20163;-45
2022/03/28 01:46:38;;;;;;;12.85;7.40;;;9.40;99.90;;;;;;5034664;28;20678;-45
2022/03/28 01:49:03;;;;;;;11.23;6.95;;;9.40;99.90;;;;;;5034691;28;20167;-45
2022/03/28 01:51:29;;;;;;;11.88;7.88;;;9.40;99.90;;;;;;5034759;28;20246;-45
2022/03/28 01:53:54;;;;;;;12.18;8.57;;;9.50;99.90;;;;;;5034510;28;20206;-45
2022/03/28 01:56:20;;;;;;;9.02;7.32;;;9.40;99.90;;;;;;5034871;28;20542;-45
2022/03/28 01:58:45;;;;;;;14.60;7.95;;;9.40;99.90;;;;;;5034518;28;20179;-45
2022/03/28 02:01:11;;;;;;;12.88;7.38;;;9.50;99.90;;;;;;5034502;28;20171;-45
2022/03/28 02:03:36;;;;;;;15.30;8.40;;;9.40;99.90;;;;;;5034456;28;20167;-45
2022/03/28 02:06:05;;;;;;;17.95;8.35;;;9.40;99.90;;;;;;5034493;28;20213;-45
2022/03/28 02:08:34;;;;;;;17.60;8.65;;;9.30;99.90;;;;;;5034377;28;20167;-45
2022/03/28 02:10:59;;;;;;;15.50;8.65;;;9.20;99.90;;;;;;5034409;28;20170;-45
2022/03/28 02:13:25;;;;;;;17.00;9.35;;;9.30;99.90;;;;;;5034258;28;20167;-45
2022/03/28 02:15:50;;;;;;;17.92;8.77;;;9.20;99.90;;;;;;5034544;28;20565;-45
2022/03/28 02:18:16;;;;;;;16.50;9.10;;;9.30;99.90;;;;;;5034224;28;20164;-45
2022/03/28 02:20:42;;;;;;;17.13;8.77;;;9.30;99.90;;;;;;5034136;28;20210;-45
2022/03/28 02:23:07;;;;;;;16.00;9.07;;;9.20;99.90;;;;;;5034096;28;20425;-45
2022/03/28 02:25:37;;;;;;;17.98;9.50;;;9.20;99.90;;;;;;5033932;28;20186;-45
2022/03/28 02:28:03;;;;;;;15.90;8.98;;;9.20;99.90;;;;;;5034244;28;20171;-45
2022/03/28 02:30:28;;;;;;;14.30;8.18;;;9.30;99.90;;;;;;5033988;28;20174;-45
2022/03/28 02:32:54;;;;;;;18.52;8.13;;;9.10;99.90;;;;;;5033931;28;20537;-45
2022/03/28 02:35:20;;;;;;;13.45;7.70;;;9.10;99.90;;;;;;5034152;28;20349;-45
2022/03/28 02:37:47;;;;;;;16.75;9.45;;;9.10;99.90;;;;;;5033763;28;20608;-45
2022/03/28 02:40:12;;;;;;;17.13;8.65;;;9.00;99.90;;;;;;5033745;28;20623;-46
2022/03/28 02:42:38;;;;;;;13.88;8.15;;;9.00;99.90;;;;;;5033734;28;20168;-45
2022/03/28 02:45:04;;;;;;;17.20;9.13;;;9.00;99.90;;;;;;5033664;28;20171;-46
2022/03/28 02:47:30;;;;;;;20.00;8.63;;;9.00;99.90;;;;;;5033470;28;20215;-45
2022/03/28 02:49:55;;;;;;;14.38;8.10;;;9.00;99.90;;;;;;5033785;28;20204;-46
2022/03/28 02:52:22;;;;;;;17.67;8.15;;;8.90;99.90;;;;;;5034064;28;20173;-45
2022/03/28 02:54:48;;;;;;;15.93;8.05;;;8.90;99.90;;;;;;5033878;28;20195;-45
2022/03/28 02:57:13;;;;;;;15.75;8.90;;;8.90;99.90;;;;;;5033674;28;20656;-45
2022/03/28 02:59:39;;;;;;;15.23;8.15;;;8.90;99.90;;;;;;5033334;28;20515;-45
2022/03/28 03:02:05;;;;;;;14.45;8.60;;;8.90;99.90;;;;;;5033404;28;20171;-45
2022/03/28 03:04:31;;;;;;;14.60;8.70;;;8.90;99.90;;;;;;5033118;28;20240;-46
2022/03/28 03:06:58;;;;;;;13.48;7.68;;;8.90;99.90;;;;;;5033166;28;20172;-45
2022/03/28 03:09:23;;;;;;;14.75;8.07;;;8.80;99.90;;;;;;5033414;28;20203;-45
2022/03/28 03:11:49;;;;;;;14.35;8.50;;;8.80;99.90;;;;;;5033474;28;20179;-45
2022/03/28 03:14:14;;;;;;;16.92;8.02;;;8.70;99.90;;;;;;5033007;28;20284;-45
2022/03/28 03:16:40;;;;;;;14.10;7.80;;;8.70;99.90;;;;;;5032994;28;20583;-45
2022/03/28 03:19:06;;;;;;;17.88;9.07;;;8.60;99.90;;;;;;5033242;28;20175;-45
2022/03/28 03:21:32;;;;;;;17.48;8.65;;;8.60;99.90;;;;;;5032994;28;20170;-45
2022/03/28 03:23:58;;;;;;;19.10;8.38;;;8.50;99.90;;;;;;5033161;28;20163;-45
2022/03/28 03:26:23;;;;;;;17.33;8.52;;;8.50;99.90;;;;;;5032862;28;20607;-45
2022/03/28 03:28:49;;;;;;;15.38;8.68;;;8.50;99.90;;;;;;5033273;28;20159;-45
2022/03/28 03:31:14;;;;;;;17.55;8.68;;;8.50;99.90;;;;;;5032859;28;20541;-45
2022/03/28 03:33:40;;;;;;;13.05;8.27;;;8.40;99.90;;;;;;5032971;28;20178;-45
2022/03/28 03:36:06;;;;;;;15.07;9.15;;;8.40;99.90;;;;;;5033052;28;20700;-45
2022/03/28 03:38:32;;;;;;;16.15;9.13;;;8.30;99.90;;;;;;5032940;28;20539;-45
2022/03/28 03:40:58;;;;;;;15.27;8.38;;;8.30;99.90;;;;;;5032648;28;20263;-45
2022/03/28 03:43:26;;;;;;;18.45;10.00;;;8.30;99.90;;;;;;5032709;28;20171;-45
2022/03/28 03:45:52;;;;;;;16.83;10.05;;;8.20;99.90;;;;;;5032751;28;20175;-46
2022/03/28 03:48:19;;;;;;;13.52;8.98;;;8.40;99.90;;;;;;5033059;28;20186;-45
2022/03/28 03:50:44;;;;;;;16.85;9.45;;;8.40;99.90;;;;;;5032437;28;20163;-45
2022/03/28 03:53:10;;;;;;;18.33;9.18;;;8.30;99.90;;;;;;5032430;28;20170;-45
2022/03/28 03:55:36;;;;;;;19.05;9.48;;;8.30;99.90;;;;;;5031045;28;20215;-45
2022/03/28 03:58:02;;;;;;;21.13;9.50;;;8.30;99.90;;;;;;5032581;28;20171;-46
2022/03/28 04:00:28;;;;;;;19.52;9.07;;;8.40;99.90;;;;;;5032381;28;20167;-45
2022/03/28 04:02:53;;;;;;;18.88;9.18;;;8.20;99.90;;;;;;5032378;28;20665;-45
2022/03/28 04:05:19;;;;;;;18.30;8.82;;;8.20;99.90;;;;;;5032681;28;20167;-46
2022/03/28 04:07:45;;;;;;;18.13;9.38;;;8.10;99.90;;;;;;5032265;28;20175;-45
2022/03/28 04:10:11;;;;;;;15.77;8.52;;;8.20;99.90;;;;;;5032180;28;20191;-46
2022/03/28 04:12:37;;;;;;;17.67;9.38;;;8.20;99.90;;;;;;5032152;28;20171;-46
2022/03/28 04:15:04;;;;;;;14.02;9.27;;;8.20;99.90;;;;;;5031192;28;20261;-46
2022/03/28 04:17:38;;;;;;;16.80;9.30;;;8.20;99.90;;;;;;5032316;28;20171;-46
2022/03/28 04:20:04;;;;;;;22.65;8.52;;;8.20;99.90;;;;;;5032070;28;20174;-45
2022/03/28 04:22:29;;;;;;;21.85;10.20;;;8.10;99.90;;;;;;5031956;28;20168;-45
2022/03/28 04:24:55;;;;;;;22.35;9.32;;;8.00;99.90;;;;;;5032111;28;20172;-46
2022/03/28 04:27:20;;;;;;;20.70;9.10;;;8.00;99.90;;;;;;5032288;28;20527;-45
2022/03/28 04:29:46;;;;;;;21.45;10.07;;;8.00;99.90;;;;;;5031838;28;20206;-45
2022/03/28 04:32:12;;;;;;;19.60;9.63;;;8.00;99.90;;;;;;5032111;28;20229;-46
2022/03/28 04:34:37;;;;;;;16.73;10.35;;;8.00;99.90;;;;;;5031755;28;20191;-45
2022/03/28 04:37:03;;;;;;;21.67;9.23;;;7.90;99.90;;;;;;5031947;28;20167;-45
2022/03/28 04:39:28;;;;;;;16.13;9.55;;;8.00;99.90;;;;;;5031906;28;20174;-45
2022/03/28 04:41:54;;;;;;;24.48;9.80;;;8.00;99.90;;;;;;5031972;28;20225;-46
2022/03/28 04:44:20;;;;;;;18.00;8.82;;;8.00;99.90;;;;;;5032114;28;20167;-46
2022/03/28 04:46:46;;;;;;;19.13;10.02;;;8.00;99.90;;;;;;5031799;28;20300;-45
2022/03/28 04:49:14;;;;;;;17.45;9.90;;;7.90;99.90;;;;;;5031811;28;20168;-46
2022/03/28 04:51:40;;;;;;;15.40;10.25;;;8.00;99.90;;;;;;5032042;28;20183;-46
2022/03/28 04:54:05;;;;;;;27.52;11.13;;;8.00;99.90;;;;;;5031750;28;20693;-45
2022/03/28 04:56:34;;;;;;;15.35;10.15;;;8.00;99.90;;;;;;5031684;28;20167;-45
2022/03/28 04:58:59;;;;;;;18.25;9.50;;;8.00;99.90;;;;;;5031657;28;20195;-45
2022/03/28 05:01:25;;;;;;;24.50;9.43;;;8.00;99.90;;;;;;5031234;28;20222;-46
2022/03/28 05:03:51;;;;;;;25.65;10.02;;;7.80;99.90;;;;;;5032002;28;20172;-45
2022/03/28 05:06:16;;;;;;;31.73;9.95;;;7.70;99.90;;;;;;5031851;28;20168;-45
2022/03/28 05:08:42;;;;;;;23.33;9.45;;;7.80;99.90;;;;;;5031658;28;20278;-46
2022/03/28 05:11:07;;;;;;;23.77;12.15;;;7.80;99.90;;;;;;5031558;28;20254;-46
2022/03/28 05:13:33;;;;;;;26.52;10.80;;;7.90;99.90;;;;;;5031265;28;20172;-45
2022/03/28 05:15:58;;;;;;;25.73;10.90;;;7.90;99.90;;;;;;5031294;28;20213;-45
2022/03/28 05:18:24;;;;;;;25.73;9.55;;;8.00;99.90;;;;;;5031547;28;20176;-45
2022/03/28 05:20:50;;;;;;;28.20;10.15;;;7.80;99.90;;;;;;5031879;28;20199;-45
2022/03/28 05:23:16;;;;;;;20.42;10.38;;;7.90;99.90;;;;;;5031349;28;20164;-47
2022/03/28 05:25:41;;;;;;;23.88;10.38;;;7.90;99.90;;;;;;5031519;28;20616;-45
2022/03/28 05:28:07;;;;;;;24.00;10.27;;;7.90;99.90;;;;;;5034843;28;20190;-46
2022/03/28 05:30:32;;;;;;;18.08;8.85;;;7.90;99.90;;;;;;5035125;28;20662;-45
2022/03/28 05:32:58;;;;;;;27.73;9.63;;;7.90;99.90;;;;;;5034846;28;20167;-45
2022/03/28 05:35:23;;;;;;;18.35;8.85;;;7.90;99.90;;;;;;5034532;28;20210;-45
2022/03/28 05:37:49;;;;;;;22.20;9.27;;;7.80;99.90;;;;;;5034952;28;20159;-45
2022/03/28 05:40:16;;;;;;;19.65;8.82;;;7.90;99.90;;;;;;5034803;28;20250;-45
2022/03/28 05:42:42;;;;;;;23.63;10.05;;;7.80;99.90;;;;;;5034725;28;20163;-46
2022/03/28 05:45:10;;;;;;;21.40;9.55;;;7.90;99.90;;;;;;5034611;28;20309;-45
2022/03/28 05:47:35;;;;;;;29.60;11.50;;;7.90;99.90;;;;;;5034531;28;20222;-45
2022/03/28 05:50:01;;;;;;;26.13;9.85;;;7.90;99.90;;;;;;5034676;28;20175;-45
2022/03/28 05:52:26;;;;;;;19.75;9.32;;;7.90;99.90;;;;;;5034529;28;20179;-45
2022/03/28 05:54:52;;;;;;;19.75;11.05;;;8.00;99.90;;;;;;5034476;28;20211;-45
2022/03/28 05:57:17;;;;;;;23.35;11.73;;;8.00;99.90;;;;;;5034801;28;20201;-45
2022/03/28 05:59:43;;;;;;;21.30;10.88;;;8.10;99.90;;;;;;5034461;28;20171;-45
2022/03/28 06:02:08;;;;;;;20.70;9.93;;;8.10;99.90;;;;;;5034454;28;20190;-45
2022/03/28 06:04:34;;;;;;;29.60;12.02;;;8.10;99.90;;;;;;5033154;28;20262;-45
2022/03/28 06:06:59;;;;;;;32.83;14.00;;;8.10;99.90;;;;;;5034391;28;20171;-45
2022/03/28 06:09:25;;;;;;;27.33;13.25;;;8.20;99.90;;;;;;5034343;28;20202;-46
2022/03/28 06:11:51;;;;;;;33.13;14.57;;;8.30;99.90;;;;;;5034594;28;20168;-46
2022/03/28 06:14:16;;;;;;;35.67;14.25;;;8.40;99.90;;;;;;5034170;28;20207;-46
2022/03/28 06:16:42;;;;;;;24.70;12.15;;;8.40;99.90;;;;;;5034166;28;20633;-46
2022/03/28 06:19:07;;;;;;;28.52;12.73;;;8.40;99.90;;;;;;5034031;28;20171;-46
2022/03/28 06:21:33;;;;;;;28.25;12.80;;;8.50;99.90;;;;;;5034177;28;20523;-46
2022/03/28 06:23:59;;;;;;;26.17;13.52;;;8.60;99.90;;;;;;5034014;28;20624;-46
2022/03/28 06:26:26;;;;;;;27.20;12.57;;;8.60;99.90;;;;;;5034234;28;20370;-45
2022/03/28 06:28:51;;;;;;;26.48;13.02;;;8.60;99.90;;;;;;5034227;28;20163;-46
2022/03/28 06:31:17;;;;;;;27.08;13.85;;;8.70;99.90;;;;;;5034159;28;20258;-46
2022/03/28 06:33:43;;;;;;;37.55;15.43;;;8.80;99.90;;;;;;5033768;28;20178;-46
2022/03/28 06:36:09;;;;;;;38.28;17.05;;;8.90;99.90;;;;;;5033657;28;20197;-46
2022/03/28 06:38:34;;;;;;;40.58;18.90;;;9.00;99.90;;;;;;5033027;28;20210;-45
2022/03/28 06:41:00;;;;;;;39.55;15.85;;;8.90;99.90;;;;;;5033942;28;20563;-46
2022/03/28 06:43:25;;;;;;;39.00;17.92;;;9.00;99.90;;;;;;5033589;28;20195;-46
2022/03/28 06:45:51;;;;;;;38.03;17.10;;;9.00;99.90;;;;;;5033884;28;20175;-46
2022/03/28 06:48:18;;;;;;;33.90;18.10;;;9.10;99.90;;;;;;5034255;28;20209;-46
2022/03/28 06:50:43;;;;;;;38.13;17.75;;;9.10;99.90;;;;;;5033587;28;20583;-46
2022/03/28 06:53:09;;;;;;;38.55;19.98;;;9.20;99.90;;;;;;5033471;28;20246;-46
2022/03/28 06:55:35;;;;;;;36.92;19.85;;;9.30;99.90;;;;;;5033341;28;20320;-46
2022/03/28 06:58:00;;;;;;;31.15;17.88;;;9.40;99.90;;;;;;5033194;28;20172;-46
2022/03/28 07:00:26;;;;;;;31.98;18.17;;;9.50;99.90;;;;;;5033184;28;20179;-46
2022/03/28 07:02:51;;;;;;;31.73;18.75;;;9.60;99.90;;;;;;5033636;28;20199;-46
2022/03/28 07:05:17;;;;;;;35.90;18.58;;;9.80;99.90;;;;;;5033407;28;20160;-46
2022/03/28 07:07:46;;;;;;;33.80;17.88;;;10.00;99.90;;;;;;5032965;28;20171;-46
2022/03/28 07:10:16;;;;;;;32.03;18.40;;;10.10;99.90;;;;;;5032879;28;20558;-46
2022/03/28 07:12:42;;;;;;;40.55;19.23;;;10.10;99.90;;;;;;5033209;28;20160;-46
2022/03/28 07:15:11;;;;;;;38.67;18.65;;;10.20;99.90;;;;;;5033006;28;20217;-46
2022/03/28 07:17:52;;;;;;;36.25;20.08;;;10.30;99.90;;;;;;5033053;28;20163;-46
2022/03/28 07:20:26;;;;;;;34.35;20.73;;;10.60;99.90;;;;;;5033479;28;20179;-46
2022/03/28 07:22:53;;;;;;;35.40;19.20;;;10.80;99.90;;;;;;5031783;28;20186;-46
2022/03/28 07:25:20;;;;;;;36.33;20.08;;;10.80;99.90;;;;;;5033179;28;20171;-46
2022/03/28 07:27:47;;;;;;;35.33;21.38;;;10.90;99.90;;;;;;5032771;28;20183;-46
2022/03/28 07:30:14;;;;;;;35.92;20.40;;;11.00;99.90;;;;;;5032734;28;20181;-46
2022/03/28 07:32:40;;;;;;;41.15;21.25;;;11.10;99.90;;;;;;5032870;28;20195;-46
2022/03/28 07:35:08;;;;;;;35.53;20.33;;;11.10;99.90;;;;;;5032592;28;20705;-46
2022/03/28 07:37:34;;;;;;;36.17;19.13;;;11.20;99.90;;;;;;5032889;28;20258;-46
2022/03/28 07:40:02;;;;;;;37.97;21.13;;;11.40;99.90;;;;;;5032652;28;20527;-46
2022/03/28 07:42:28;;;;;;;36.55;21.05;;;11.40;99.90;;;;;;5032481;28;20246;-46
2022/03/28 07:44:56;;;;;;;38.58;19.92;;;11.50;99.90;;;;;;5032544;28;20170;-46
2022/03/28 07:47:25;;;;;;;40.63;21.63;;;11.50;99.90;;;;;;5032383;28;20234;-46
2022/03/28 07:49:52;;;;;;;43.20;21.40;;;11.70;99.90;;;;;;5032873;28;20171;-46
2022/03/28 07:52:18;;;;;;;37.65;21.67;;;11.80;99.90;;;;;;5032961;28;20182;-46
2022/03/28 07:54:44;;;;;;;52.70;22.05;;;11.90;99.90;;;;;;5032488;28;20195;-46
2022/03/28 07:57:09;;;;;;;41.15;21.63;;;12.00;99.90;;;;;;5032613;28;20176;-46
2022/03/28 07:59:35;;;;;;;40.35;21.40;;;12.10;99.90;;;;;;5032269;28;20160;-45
2022/03/28 08:02:01;;;;;;;44.53;20.95;;;12.20;99.90;;;;;;5032496;28;20182;-45
2022/03/28 08:04:27;;;;;;;38.63;21.15;;;12.10;99.90;;;;;;5032433;28;20178;-46
2022/03/28 08:06:53;;;;;;;52.58;22.70;;;12.10;99.90;;;;;;5032051;28;20167;-45
2022/03/28 08:09:18;;;;;;;40.55;20.48;;;12.10;99.90;;;;;;5032715;28;20178;-45
2022/03/28 08:11:44;;;;;;;44.88;20.92;;;12.10;99.90;;;;;;5032064;28;20172;-46
2022/03/28 08:14:09;;;;;;;34.25;21.33;;;12.30;99.90;;;;;;5032205;28;20349;-45
2022/03/28 08:16:35;;;;;;;41.28;21.98;;;12.40;99.90;;;;;;5032179;28;20164;-46
2022/03/28 08:19:01;;;;;;;41.35;21.60;;;12.50;99.90;;;;;;5032063;28;20713;-45
2022/03/28 08:21:26;;;;;;;37.33;21.13;;;12.70;99.90;;;;;;5032133;28;20580;-46
2022/03/28 08:23:52;;;;;;;34.90;20.98;;;12.70;99.90;;;;;;5032366;28;20623;-46
2022/03/28 08:26:17;;;;;;;33.22;20.90;;;12.80;99.90;;;;;;5032230;28;20175;-46
2022/03/28 08:28:44;;;;;;;34.45;20.95;;;12.70;99.90;;;;;;5031993;28;20163;-46
2022/03/28 08:31:10;;;;;;;36.30;21.25;;;12.90;99.90;;;;;;5031853;28;20529;-46
2022/03/28 08:33:35;;;;;;;36.88;22.48;;;13.10;99.90;;;;;;5031891;28;20697;-46
2022/03/28 08:36:01;;;;;;;29.98;19.85;;;13.10;99.90;;;;;;5047169;28;20211;-45
2022/03/28 08:38:27;;;;;;;32.63;21.60;;;13.40;99.90;;;;;;5030559;28;20212;-47
2022/03/28 08:40:52;;;;;;;29.95;20.35;;;13.40;99.90;;;;;;5030635;28;20167;-45
2022/03/28 08:43:20;;;;;;;36.38;21.50;;;13.60;99.90;;;;;;5030778;28;20171;-46
2022/03/28 08:45:51;;;;;;;32.25;21.00;;;13.60;99.90;;;;;;5030756;28;20194;-48
2022/03/28 08:48:17;;;;;;;31.65;21.33;;;13.50;99.90;;;;;;5029345;28;20190;-49
2022/03/28 08:50:45;;;;;;;31.85;21.20;;;13.80;99.90;;;;;;5030367;28;20179;-45
2022/03/28 08:53:12;;;;;;;32.03;21.45;;;14.00;99.90;;;;;;5030309;28;20168;-46
2022/03/28 08:55:40;;;;;;;37.33;22.30;;;14.10;99.90;;;;;;5030384;28;20215;-44
2022/03/28 08:58:06;;;;;;;29.60;21.20;;;14.10;99.90;;;;;;5030119;28;20266;-49
2022/03/28 09:00:32;;;;;;;29.25;20.90;;;14.30;99.90;;;;;;5030474;28;20255;-49
2022/03/28 09:02:58;;;;;;;35.45;21.58;;;14.30;99.90;;;;;;5033888;28;20174;-52
2022/03/28 09:05:31;;;;;;;33.50;21.88;;;14.20;99.90;;;;;;5034515;28;20175;-48
2022/03/28 09:07:58;;;;;;;35.47;21.55;;;14.40;99.90;;;;;;5034384;28;20171;-49
2022/03/28 09:10:27;;;;;;;29.67;20.70;;;14.50;99.90;;;;;;5034583;28;20268;-49
2022/03/28 09:12:57;;;;;;;31.02;21.67;;;14.50;99.90;;;;;;5034200;28;20175;-49
2022/03/28 09:15:23;;;;;;;28.10;20.70;;;14.60;99.90;;;;;;5033891;28;20238;-48
2022/03/28 09:17:56;;;;;;;32.22;21.10;;;14.70;99.90;;;;;;5034475;28;20200;-49
2022/03/28 09:20:23;;;;;;;30.60;21.02;;;14.70;99.90;;;;;;5034453;28;20181;-49
2022/03/28 09:22:49;;;;;;;30.17;21.60;;;14.90;99.90;;;;;;5034137;28;20678;-49
2022/03/28 09:25:17;;;;;;;30.38;20.27;;;15.10;99.90;;;;;;5034002;28;20281;-48
2022/03/28 09:27:44;;;;;;;32.05;21.92;;;15.10;99.90;;;;;;5032698;28;20176;-48
2022/03/28 09:30:13;;;;;;;31.40;21.30;;;15.30;99.90;;;;;;5033619;28;20560;-48
2022/03/28 09:32:44;;;;;;;32.13;21.58;;;15.50;99.90;;;;;;5033826;28;20168;-48
2022/03/28 09:35:28;;;;;;;34.28;23.08;;;15.70;99.90;;;;;;5033476;28;20207;-49
2022/03/28 09:38:02;;;;;;;32.15;21.42;;;15.60;99.90;;;;;;5033833;28;20274;-49
2022/03/28 09:40:36;;;;;;;31.50;22.45;;;15.70;99.90;;;;;;5033746;28;20186;-48
2022/03/28 09:43:25;;;;;;;33.05;21.23;;;15.80;99.90;;;;;;5033681;28;20266;-49
2022/03/28 09:45:54;;;;;;;31.77;21.02;;;15.90;99.90;;;;;;5033142;28;20241;-47
2022/03/28 09:48:22;;;;;;;36.10;22.67;;;16.20;99.90;;;;;;5033506;28;20600;-47
2022/03/28 09:50:59;;;;;;;35.63;20.33;;;16.30;99.90;;;;;;5033623;28;20178;-47
2022/03/28 09:53:31;;;;;;;27.20;20.40;;;16.30;99.90;;;;;;5033576;28;20261;-47
2022/03/28 09:56:08;;;;;;;30.13;20.80;;;16.10;99.90;;;;;;5033265;28;20215;-47
2022/03/28 09:58:48;;;;;;;29.08;20.02;;;16.10;99.90;;;;;;5033274;28;20222;-46
2022/03/28 10:01:24;;;;;;;31.83;20.50;;;16.30;99.90;;;;;;5032998;28;20174;-47
2022/03/28 10:03:54;;;;;;;29.30;20.02;;;16.40;99.90;;;;;;5033797;28;20212;-48
2022/03/28 10:06:20;;;;;;;32.20;19.33;;;16.30;99.90;;;;;;5033285;28;20167;-47
2022/03/28 10:08:46;;;;;;;33.35;20.70;;;16.50;99.90;;;;;;5033151;28;20525;-47
2022/03/28 10:11:12;;;;;;;26.90;19.52;;;16.60;99.90;;;;;;5033361;28;20179;-47
2022/03/28 10:13:39;;;;;;;28.75;20.10;;;16.60;99.90;;;;;;5031697;28;20526;-47
2022/03/28 10:16:05;;;;;;;32.13;20.60;;;16.70;99.90;;;;;;5032940;28;20226;-47
2022/03/28 10:18:33;;;;;;;27.92;20.73;;;17.00;99.90;;;;;;5033066;28;20167;-47
2022/03/28 10:21:16;;;;;;;28.73;20.40;;;17.00;99.90;;;;;;5033031;28;20206;-46
2022/03/28 10:24:12;;;;;;;31.38;21.23;;;17.10;99.90;;;;;;5033120;28;20172;-47
2022/03/28 10:26:42;;;;;;;28.02;21.73;;;17.10;99.90;;;;;;5031810;28;20191;-46
2022/03/28 10:29:14;;;;;;;30.48;21.65;;;17.20;99.90;;;;;;5032614;28;20520;-46
2022/03/28 10:31:52;;;;;;;32.03;22.00;;;17.50;99.90;;;;;;5032871;28;20176;-46
2022/03/28 10:34:54;;;;;;;28.52;21.42;;;17.50;99.90;;;;;;5032619;28;20237;-46
2022/03/28 10:37:29;;;;;;;30.83;21.25;;;17.60;99.90;;;;;;5033142;28;20179;-45
2022/03/28 10:40:16;;;;;;;30.30;20.55;;;17.70;99.90;;;;;;5032518;28;20163;-46
2022/03/28 10:42:48;;;;;;;30.38;20.40;;;17.90;99.90;;;;;;5031264;28;20179;-45
2022/03/28 10:45:19;;;;;;;31.33;21.52;;;17.80;99.90;;;;;;5032397;28;20156;-45
2022/03/28 10:47:49;;;;;;;29.58;19.80;;;17.90;99.90;;;;;;5032278;28;20238;-45
2022/03/28 10:50:18;;;;;;;29.52;21.50;;;18.00;99.90;;;;;;5032409;28;20164;-45
2022/03/28 10:53:03;;;;;;;31.00;20.75;;;18.00;99.90;;;;;;5032407;28;20175;-46
2022/03/28 10:55:53;;;;;;;32.50;20.83;;;18.20;99.90;;;;;;5032388;28;20242;-46
2022/03/28 10:58:23;;;;;;;28.73;20.63;;;18.20;99.90;;;;;;5032077;28;20661;-45
2022/03/28 11:01:07;;;;;;;31.92;21.60;;;18.30;99.90;;;;;;5032587;28;20179;-45
2022/03/28 11:03:36;;;;;;;30.25;21.63;;;18.40;99.90;;;;;;5023123;28;20675;-45
2022/03/28 11:06:03;;;;;;;31.73;22.42;;;18.50;99.90;;;;;;5023668;28;20160;-46
2022/03/28 11:08:36;;;;;;;29.85;21.48;;;18.40;99.90;;;;;;5032021;28;20179;-45
2022/03/28 11:11:19;;;;;;;27.95;19.75;;;18.30;99.90;;;;;;5032177;28;20164;-46
2022/03/28 11:14:06;;;;;;;30.67;20.48;;;18.30;99.90;;;;;;5031804;28;20191;-45
2022/03/28 11:16:51;;;;;;;31.85;21.55;;;18.60;99.90;;;;;;5032148;28;20187;-46
2022/03/28 11:19:24;;;;;;;28.77;20.73;;;18.80;99.90;;;;;;5032048;28;20742;-46
2022/03/28 11:22:01;;;;;;;35.33;22.30;;;18.80;99.90;;;;;;5031952;28;20250;-46
2022/03/28 11:24:54;;;;;;;31.35;21.77;;;18.90;99.90;;;;;;5031496;28;20178;-45
2022/03/28 11:27:22;;;;;;;31.92;19.98;;;18.90;99.90;;;;;;5031472;28;20167;-45
2022/03/28 11:29:49;;;;;;;30.80;20.83;;;18.70;99.90;;;;;;5031988;28;20171;-45
2022/03/28 11:32:19;;;;;;;26.38;19.92;;;18.90;99.90;;;;;;5031503;28;20182;-45
2022/03/28 11:34:52;;;;;;;29.27;20.40;;;18.90;99.90;;;;;;5031637;28;20206;-45
2022/03/28 11:37:22;;;;;;;32.47;19.45;;;19.00;99.90;;;;;;5030115;28;20699;-45
2022/03/28 11:40:02;;;;;;;31.83;18.60;;;18.90;99.90;;;;;;5031622;28;20175;-45
2022/03/28 11:42:29;;;;;;;33.20;20.35;;;19.00;99.90;;;;;;5031342;28;20163;-46
2022/03/28 11:44:56;;;;;;;30.45;19.10;;;19.00;99.90;;;;;;5031416;28;20159;-45
2022/03/28 11:47:23;;;;;;;28.98;19.20;;;19.00;99.90;;;;;;5031228;28;20219;-45
2022/03/28 11:50:00;;;;;;;39.22;19.63;;;19.00;99.90;;;;;;5031493;28;20176;-45
2022/03/28 11:52:28;;;;;;;31.92;20.05;;;19.20;99.90;;;;;;5031418;28;20178;-45
2022/03/28 11:54:55;;;;;;;29.83;18.40;;;19.20;99.90;;;;;;5031024;28;20651;-45
2022/03/28 12:00:21;;;;;;;25.83;17.60;;;19.50;99.90;;;;;;5030915;28;20720;-45
2022/03/28 12:02:55;;;;;;;26.30;17.33;;;19.50;99.90;;;;;;5030830;28;20736;-45
2022/03/28 12:05:38;;;;;;;28.33;18.15;;;19.40;99.90;;;;;;5031340;28;20177;-45
2022/03/28 12:08:14;;;;;;;29.70;18.90;;;19.60;99.90;;;;;;5030961;28;20173;-45
2022/03/28 12:10:47;;;;;;;27.35;18.35;;;19.60;99.90;;;;;;5031226;28;20262;-45
2022/03/28 12:13:12;;;;;;;25.85;17.55;;;19.60;99.90;;;;;;5030974;28;20170;-45
2022/03/28 12:15:45;;;;;;;27.25;18.30;;;19.50;99.90;;;;;;5030630;28;20210;-45
2022/03/28 12:18:12;;;;;;;27.42;17.63;;;19.40;99.90;;;;;;5030674;28;20233;-45
2022/03/28 12:20:43;;;;;;;30.60;20.80;;;19.40;99.90;;;;;;5030879;28;20175;-45
2022/03/28 12:23:12;;;;;;;24.02;17.48;;;19.60;99.90;;;;;;5030794;28;20171;-46
2022/03/28 12:25:45;;;;;;;24.45;16.77;;;19.40;99.90;;;;;;5030859;28;20179;-45
2022/03/28 12:28:17;;;;;;;27.73;16.50;;;19.50;99.90;;;;;;5029330;28;20171;-46
2022/03/28 12:30:49;;;;;;;27.55;16.58;;;19.50;99.90;;;;;;5030852;28;20171;-45
2022/03/28 12:33:18;;;;;;;26.63;17.45;;;19.50;99.90;;;;;;5030880;28;20222;-45
2022/03/28 12:35:50;;;;;;;28.80;17.48;;;19.60;99.90;;;;;;5030621;28;20285;-45
2022/03/28 12:38:24;;;;;;;24.45;16.90;;;19.70;99.90;;;;;;5034659;28;20163;-45
2022/03/28 12:40:52;;;;;;;22.67;15.10;;;19.60;99.90;;;;;;5035088;28;20178;-45
2022/03/28 12:43:23;;;;;;;24.58;16.23;;;19.50;99.90;;;;;;5035388;28;20175;-45
2022/03/28 12:45:49;;;;;;;24.75;16.15;;;19.60;99.90;;;;;;5034743;28;20179;-45